sensor_id;sensor_type;location;lat;lon;timestamp;P1;durP1;ratioP1;P2;durP2;ratioP2
29848;SDS011;16728;50.832;5.590;2024-01-16T00:00:18;8.80;;;4.70;;
29848;SDS011;16728;50.832;5.590;2024-01-16T00:03:21;9.27;;;4.57;;
29848;SDS011;16728;50.832;5.590;2024-01-16T00:06:23;8.83;;;4.37;;
29848;SDS011;16728;50.832;5.590;2024-01-16T00:09:25;10.50;;;4.53;;
29848;SDS011;16728;50.832;5.590;2024-01-16T00:12:28;9.57;;;4.47;;
29848;SDS011;16728;50.832;5.590;2024-01-16T00:15:30;15.50;;;4.83;;
29848;SDS011;16728;50.832;5.590;2024-01-16T00:18:32;24.00;;;5.43;;
29848;SDS011;16728;50.832;5.590;2024-01-16T00:21:38;11.77;;;5.07;;
29848;SDS011;16728;50.832;5.590;2024-01-16T00:24:40;13.23;;;5.43;;
29848;SDS011;16728;50.832;5.590;2024-01-16T00:27:42;11.43;;;5.03;;
29848;SDS011;16728;50.832;5.590;2024-01-16T00:30:44;11.82;;;5.32;;
29848;SDS011;16728;50.832;5.590;2024-01-16T00:33:47;9.90;;;5.00;;
29848;SDS011;16728;50.832;5.590;2024-01-16T00:36:49;15.43;;;5.53;;
29848;SDS011;16728;50.832;5.590;2024-01-16T00:39:51;7.85;;;4.30;;
29848;SDS011;16728;50.832;5.590;2024-01-16T00:42:54;12.07;;;5.00;;
29848;SDS011;16728;50.832;5.590;2024-01-16T00:45:56;13.83;;;5.07;;
29848;SDS011;16728;50.832;5.590;2024-01-16T00:48:58;16.35;;;5.57;;
29848;SDS011;16728;50.832;5.590;2024-01-16T00:52:01;11.65;;;5.40;;
29848;SDS011;16728;50.832;5.590;2024-01-16T00:55:03;14.23;;;5.55;;
29848;SDS011;16728;50.832;5.590;2024-01-16T00:58:06;11.48;;;6.07;;
29848;SDS011;16728;50.832;5.590;2024-01-16T01:01:08;15.85;;;6.25;;
29848;SDS011;16728;50.832;5.590;2024-01-16T01:04:10;9.23;;;4.90;;
29848;SDS011;16728;50.832;5.590;2024-01-16T01:07:13;12.70;;;5.67;;
29848;SDS011;16728;50.832;5.590;2024-01-16T01:10:15;15.00;;;6.03;;
29848;SDS011;16728;50.832;5.590;2024-01-16T01:13:18;12.37;;;5.27;;
29848;SDS011;16728;50.832;5.590;2024-01-16T01:16:20;11.50;;;6.20;;
29848;SDS011;16728;50.832;5.590;2024-01-16T01:19:22;13.80;;;4.97;;
29848;SDS011;16728;50.832;5.590;2024-01-16T01:22:25;11.93;;;4.63;;
29848;SDS011;16728;50.832;5.590;2024-01-16T01:25:27;13.93;;;5.10;;
29848;SDS011;16728;50.832;5.590;2024-01-16T01:28:29;10.90;;;4.87;;
29848;SDS011;16728;50.832;5.590;2024-01-16T01:31:32;11.00;;;4.85;;
29848;SDS011;16728;50.832;5.590;2024-01-16T01:34:34;16.48;;;5.65;;
29848;SDS011;16728;50.832;5.590;2024-01-16T01:37:37;13.20;;;5.37;;
29848;SDS011;16728;50.832;5.590;2024-01-16T01:40:39;14.07;;;5.35;;
29848;SDS011;16728;50.832;5.590;2024-01-16T01:43:43;11.05;;;4.70;;
29848;SDS011;16728;50.832;5.590;2024-01-16T01:46:45;8.37;;;4.83;;
29848;SDS011;16728;50.832;5.590;2024-01-16T01:49:48;8.95;;;4.90;;
29848;SDS011;16728;50.832;5.590;2024-01-16T01:52:50;13.77;;;5.43;;
29848;SDS011;16728;50.832;5.590;2024-01-16T01:55:53;10.13;;;3.90;;
29848;SDS011;16728;50.832;5.590;2024-01-16T01:58:56;7.65;;;4.13;;
29848;SDS011;16728;50.832;5.590;2024-01-16T02:02:03;11.13;;;4.80;;
29848;SDS011;16728;50.832;5.590;2024-01-16T02:05:06;10.35;;;4.00;;
29848;SDS011;16728;50.832;5.590;2024-01-16T02:08:09;11.80;;;4.45;;
29848;SDS011;16728;50.832;5.590;2024-01-16T02:11:11;11.43;;;4.68;;
29848;SDS011;16728;50.832;5.590;2024-01-16T02:14:14;10.63;;;3.57;;
29848;SDS011;16728;50.832;5.590;2024-01-16T02:17:16;9.13;;;4.67;;
29848;SDS011;16728;50.832;5.590;2024-01-16T02:20:18;14.55;;;4.75;;
29848;SDS011;16728;50.832;5.590;2024-01-16T02:23:24;11.97;;;4.30;;
29848;SDS011;16728;50.832;5.590;2024-01-16T02:26:28;12.27;;;4.10;;
29848;SDS011;16728;50.832;5.590;2024-01-16T02:32:34;13.48;;;3.97;;
29848;SDS011;16728;50.832;5.590;2024-01-16T02:35:36;9.55;;;3.70;;
29848;SDS011;16728;50.832;5.590;2024-01-16T02:38:38;10.75;;;4.05;;
29848;SDS011;16728;50.832;5.590;2024-01-16T02:41:44;10.63;;;3.70;;
29848;SDS011;16728;50.832;5.590;2024-01-16T02:44:47;12.10;;;4.30;;
29848;SDS011;16728;50.832;5.590;2024-01-16T02:47:49;11.27;;;4.07;;
29848;SDS011;16728;50.832;5.590;2024-01-16T02:50:51;7.93;;;4.23;;
29848;SDS011;16728;50.832;5.590;2024-01-16T02:53:54;12.07;;;4.20;;
29848;SDS011;16728;50.832;5.590;2024-01-16T02:56:56;11.13;;;3.70;;
29848;SDS011;16728;50.832;5.590;2024-01-16T02:59:59;9.45;;;4.22;;
29848;SDS011;16728;50.832;5.590;2024-01-16T03:03:01;9.67;;;5.80;;
29848;SDS011;16728;50.832;5.590;2024-01-16T03:06:03;13.35;;;4.30;;
29848;SDS011;16728;50.832;5.590;2024-01-16T03:09:06;9.15;;;3.72;;
29848;SDS011;16728;50.832;5.590;2024-01-16T03:12:08;12.23;;;4.20;;
29848;SDS011;16728;50.832;5.590;2024-01-16T03:15:10;14.87;;;4.60;;
29848;SDS011;16728;50.832;5.590;2024-01-16T03:18:13;10.30;;;3.88;;
29848;SDS011;16728;50.832;5.590;2024-01-16T03:21:15;9.57;;;4.18;;
29848;SDS011;16728;50.832;5.590;2024-01-16T03:24:18;8.30;;;3.17;;
29848;SDS011;16728;50.832;5.590;2024-01-16T03:30:23;10.57;;;3.90;;
29848;SDS011;16728;50.832;5.590;2024-01-16T03:33:25;12.13;;;4.10;;
29848;SDS011;16728;50.832;5.590;2024-01-16T03:36:28;6.43;;;3.67;;
29848;SDS011;16728;50.832;5.590;2024-01-16T03:39:30;9.77;;;4.13;;
29848;SDS011;16728;50.832;5.590;2024-01-16T03:42:32;9.57;;;4.30;;
29848;SDS011;16728;50.832;5.590;2024-01-16T03:45:34;10.60;;;4.87;;
29848;SDS011;16728;50.832;5.590;2024-01-16T03:48:37;11.25;;;4.50;;
29848;SDS011;16728;50.832;5.590;2024-01-16T03:51:39;14.13;;;4.25;;
29848;SDS011;16728;50.832;5.590;2024-01-16T03:54:45;11.52;;;4.07;;
29848;SDS011;16728;50.832;5.590;2024-01-16T03:57:48;8.93;;;3.67;;
29848;SDS011;16728;50.832;5.590;2024-01-16T04:00:52;12.75;;;3.90;;
29848;SDS011;16728;50.832;5.590;2024-01-16T04:03:55;16.92;;;4.57;;
29848;SDS011;16728;50.832;5.590;2024-01-16T04:06:57;11.07;;;4.00;;
29848;SDS011;16728;50.832;5.590;2024-01-16T04:09:59;12.47;;;3.73;;
29848;SDS011;16728;50.832;5.590;2024-01-16T04:13:02;11.60;;;4.28;;
29848;SDS011;16728;50.832;5.590;2024-01-16T04:16:05;12.02;;;3.92;;
29848;SDS011;16728;50.832;5.590;2024-01-16T04:19:07;10.93;;;3.60;;
29848;SDS011;16728;50.832;5.590;2024-01-16T04:22:10;12.98;;;4.57;;
29848;SDS011;16728;50.832;5.590;2024-01-16T04:25:12;14.43;;;4.15;;
29848;SDS011;16728;50.832;5.590;2024-01-16T04:28:14;13.45;;;4.97;;
29848;SDS011;16728;50.832;5.590;2024-01-16T04:31:16;10.33;;;4.13;;
29848;SDS011;16728;50.832;5.590;2024-01-16T04:34:20;10.50;;;4.55;;
29848;SDS011;16728;50.832;5.590;2024-01-16T04:37:23;9.37;;;4.33;;
29848;SDS011;16728;50.832;5.590;2024-01-16T04:40:25;13.07;;;5.40;;
29848;SDS011;16728;50.832;5.590;2024-01-16T04:43:27;11.73;;;4.33;;
29848;SDS011;16728;50.832;5.590;2024-01-16T04:46:29;15.37;;;4.90;;
29848;SDS011;16728;50.832;5.590;2024-01-16T04:49:31;16.27;;;4.50;;
29848;SDS011;16728;50.832;5.590;2024-01-16T04:52:34;12.02;;;4.25;;
29848;SDS011;16728;50.832;5.590;2024-01-16T04:55:36;13.60;;;4.43;;
29848;SDS011;16728;50.832;5.590;2024-01-16T04:58:38;7.37;;;4.27;;
29848;SDS011;16728;50.832;5.590;2024-01-16T05:01:41;8.82;;;4.00;;
29848;SDS011;16728;50.832;5.590;2024-01-16T05:04:43;11.30;;;3.27;;
29848;SDS011;16728;50.832;5.590;2024-01-16T05:07:45;12.10;;;3.83;;
29848;SDS011;16728;50.832;5.590;2024-01-16T05:10:48;9.27;;;4.00;;
29848;SDS011;16728;50.832;5.590;2024-01-16T05:13:50;11.70;;;4.20;;
29848;SDS011;16728;50.832;5.590;2024-01-16T05:16:58;13.27;;;7.70;;
29848;SDS011;16728;50.832;5.590;2024-01-16T05:20:01;15.30;;;6.35;;
29848;SDS011;16728;50.832;5.590;2024-01-16T05:23:07;10.20;;;4.47;;
29848;SDS011;16728;50.832;5.590;2024-01-16T05:26:09;13.80;;;4.18;;
29848;SDS011;16728;50.832;5.590;2024-01-16T05:29:11;8.60;;;5.10;;
29848;SDS011;16728;50.832;5.590;2024-01-16T05:32:14;13.52;;;4.65;;
29848;SDS011;16728;50.832;5.590;2024-01-16T05:35:16;9.98;;;4.82;;
29848;SDS011;16728;50.832;5.590;2024-01-16T05:38:19;10.35;;;4.65;;
29848;SDS011;16728;50.832;5.590;2024-01-16T05:41:21;11.63;;;5.00;;
29848;SDS011;16728;50.832;5.590;2024-01-16T05:44:23;11.60;;;5.00;;
29848;SDS011;16728;50.832;5.590;2024-01-16T05:47:26;12.13;;;5.13;;
29848;SDS011;16728;50.832;5.590;2024-01-16T05:50:29;13.43;;;5.28;;
29848;SDS011;16728;50.832;5.590;2024-01-16T05:53:31;8.73;;;4.35;;
29848;SDS011;16728;50.832;5.590;2024-01-16T05:56:34;11.57;;;5.03;;
29848;SDS011;16728;50.832;5.590;2024-01-16T05:59:36;10.98;;;4.85;;
29848;SDS011;16728;50.832;5.590;2024-01-16T06:02:38;10.20;;;4.73;;
29848;SDS011;16728;50.832;5.590;2024-01-16T06:05:41;14.90;;;5.40;;
29848;SDS011;16728;50.832;5.590;2024-01-16T06:08:43;13.40;;;5.25;;
29848;SDS011;16728;50.832;5.590;2024-01-16T06:11:46;15.93;;;5.10;;
29848;SDS011;16728;50.832;5.590;2024-01-16T06:14:49;13.43;;;4.80;;
29848;SDS011;16728;50.832;5.590;2024-01-16T06:17:51;11.90;;;4.47;;
29848;SDS011;16728;50.832;5.590;2024-01-16T06:20:54;12.43;;;4.63;;
29848;SDS011;16728;50.832;5.590;2024-01-16T06:23:56;10.02;;;5.30;;
29848;SDS011;16728;50.832;5.590;2024-01-16T06:26:59;20.48;;;8.18;;
29848;SDS011;16728;50.832;5.590;2024-01-16T06:30:01;13.73;;;7.50;;
29848;SDS011;16728;50.832;5.590;2024-01-16T06:33:05;10.30;;;5.03;;
29848;SDS011;16728;50.832;5.590;2024-01-16T06:36:07;8.27;;;4.30;;
29848;SDS011;16728;50.832;5.590;2024-01-16T06:39:10;8.82;;;4.50;;
29848;SDS011;16728;50.832;5.590;2024-01-16T06:42:15;12.57;;;5.18;;
29848;SDS011;16728;50.832;5.590;2024-01-16T06:45:17;11.57;;;5.23;;
29848;SDS011;16728;50.832;5.590;2024-01-16T06:48:20;13.32;;;5.28;;
29848;SDS011;16728;50.832;5.590;2024-01-16T06:51:23;8.90;;;5.13;;
29848;SDS011;16728;50.832;5.590;2024-01-16T06:54:25;13.00;;;5.57;;
29848;SDS011;16728;50.832;5.590;2024-01-16T06:57:27;18.27;;;5.78;;
29848;SDS011;16728;50.832;5.590;2024-01-16T07:00:29;19.63;;;5.65;;
29848;SDS011;16728;50.832;5.590;2024-01-16T07:03:32;26.27;;;9.17;;
29848;SDS011;16728;50.832;5.590;2024-01-16T07:06:34;8.13;;;4.50;;
29848;SDS011;16728;50.832;5.590;2024-01-16T07:09:36;10.98;;;5.50;;
29848;SDS011;16728;50.832;5.590;2024-01-16T07:12:39;8.60;;;3.87;;
29848;SDS011;16728;50.832;5.590;2024-01-16T07:15:41;12.25;;;5.03;;
29848;SDS011;16728;50.832;5.590;2024-01-16T07:18:43;14.57;;;5.38;;
29848;SDS011;16728;50.832;5.590;2024-01-16T07:21:48;11.40;;;5.63;;
29848;SDS011;16728;50.832;5.590;2024-01-16T07:24:51;16.25;;;5.43;;
29848;SDS011;16728;50.832;5.590;2024-01-16T07:27:54;15.70;;;5.90;;
29848;SDS011;16728;50.832;5.590;2024-01-16T07:30:56;11.03;;;5.13;;
29848;SDS011;16728;50.832;5.590;2024-01-16T07:33:58;7.28;;;4.15;;
29848;SDS011;16728;50.832;5.590;2024-01-16T07:37:01;9.20;;;4.57;;
29848;SDS011;16728;50.832;5.590;2024-01-16T07:40:03;14.23;;;5.47;;
29848;SDS011;16728;50.832;5.590;2024-01-16T07:43:07;12.30;;;5.35;;
29848;SDS011;16728;50.832;5.590;2024-01-16T07:46:09;10.73;;;5.47;;
29848;SDS011;16728;50.832;5.590;2024-01-16T07:52:14;10.95;;;4.55;;
29848;SDS011;16728;50.832;5.590;2024-01-16T07:55:17;12.57;;;4.70;;
29848;SDS011;16728;50.832;5.590;2024-01-16T07:58:23;10.60;;;4.40;;
29848;SDS011;16728;50.832;5.590;2024-01-16T08:01:26;15.30;;;5.13;;
29848;SDS011;16728;50.832;5.590;2024-01-16T08:04:28;13.77;;;4.93;;
29848;SDS011;16728;50.832;5.590;2024-01-16T08:07:30;16.20;;;6.03;;
29848;SDS011;16728;50.832;5.590;2024-01-16T08:10:32;20.10;;;9.45;;
29848;SDS011;16728;50.832;5.590;2024-01-16T08:13:35;9.87;;;4.73;;
29848;SDS011;16728;50.832;5.590;2024-01-16T08:16:37;15.57;;;5.20;;
29848;SDS011;16728;50.832;5.590;2024-01-16T08:19:39;11.30;;;5.57;;
29848;SDS011;16728;50.832;5.590;2024-01-16T08:22:42;8.45;;;4.85;;
29848;SDS011;16728;50.832;5.590;2024-01-16T08:25:44;12.60;;;5.00;;
29848;SDS011;16728;50.832;5.590;2024-01-16T08:28:46;12.07;;;5.28;;
29848;SDS011;16728;50.832;5.590;2024-01-16T08:31:48;15.47;;;7.00;;
29848;SDS011;16728;50.832;5.590;2024-01-16T08:37:53;12.45;;;5.55;;
29848;SDS011;16728;50.832;5.590;2024-01-16T08:40:56;9.50;;;4.38;;
29848;SDS011;16728;50.832;5.590;2024-01-16T08:43:58;14.02;;;5.88;;
29848;SDS011;16728;50.832;5.590;2024-01-16T08:47:00;12.20;;;5.20;;
29848;SDS011;16728;50.832;5.590;2024-01-16T08:50:06;14.30;;;4.78;;
29848;SDS011;16728;50.832;5.590;2024-01-16T08:53:10;12.25;;;5.40;;
29848;SDS011;16728;50.832;5.590;2024-01-16T08:56:12;12.77;;;5.40;;
29848;SDS011;16728;50.832;5.590;2024-01-16T08:59:15;12.37;;;4.80;;
29848;SDS011;16728;50.832;5.590;2024-01-16T09:02:17;10.32;;;4.70;;
29848;SDS011;16728;50.832;5.590;2024-01-16T09:05:20;10.23;;;4.45;;
29848;SDS011;16728;50.832;5.590;2024-01-16T09:08:26;12.98;;;4.65;;
29848;SDS011;16728;50.832;5.590;2024-01-16T09:11:29;9.35;;;4.82;;
29848;SDS011;16728;50.832;5.590;2024-01-16T09:14:31;12.23;;;4.85;;
29848;SDS011;16728;50.832;5.590;2024-01-16T09:17:33;8.33;;;4.93;;
29848;SDS011;16728;50.832;5.590;2024-01-16T09:20:36;8.32;;;4.57;;
29848;SDS011;16728;50.832;5.590;2024-01-16T09:23:38;5.57;;;3.43;;
29848;SDS011;16728;50.832;5.590;2024-01-16T09:26:41;10.27;;;4.50;;
29848;SDS011;16728;50.832;5.590;2024-01-16T09:29:43;8.90;;;5.20;;
29848;SDS011;16728;50.832;5.590;2024-01-16T09:32:45;12.32;;;4.97;;
29848;SDS011;16728;50.832;5.590;2024-01-16T09:35:48;6.53;;;3.88;;
29848;SDS011;16728;50.832;5.590;2024-01-16T09:38:51;6.85;;;4.50;;
29848;SDS011;16728;50.832;5.590;2024-01-16T09:41:53;10.63;;;4.72;;
29848;SDS011;16728;50.832;5.590;2024-01-16T09:44:56;9.73;;;5.15;;
29848;SDS011;16728;50.832;5.590;2024-01-16T09:47:58;13.88;;;5.20;;
29848;SDS011;16728;50.832;5.590;2024-01-16T09:51:01;11.38;;;5.25;;
29848;SDS011;16728;50.832;5.590;2024-01-16T09:54:04;11.10;;;4.93;;
29848;SDS011;16728;50.832;5.590;2024-01-16T09:57:10;11.30;;;4.75;;
29848;SDS011;16728;50.832;5.590;2024-01-16T10:00:13;11.32;;;4.50;;
29848;SDS011;16728;50.832;5.590;2024-01-16T10:03:16;10.77;;;5.05;;
29848;SDS011;16728;50.832;5.590;2024-01-16T10:06:20;12.90;;;4.85;;
29848;SDS011;16728;50.832;5.590;2024-01-16T10:09:24;10.32;;;4.90;;
29848;SDS011;16728;50.832;5.590;2024-01-16T10:12:26;9.80;;;4.72;;
29848;SDS011;16728;50.832;5.590;2024-01-16T10:15:28;10.30;;;4.82;;
29848;SDS011;16728;50.832;5.590;2024-01-16T10:18:31;9.02;;;4.50;;
29848;SDS011;16728;50.832;5.590;2024-01-16T10:21:35;10.68;;;4.90;;
29848;SDS011;16728;50.832;5.590;2024-01-16T10:24:37;18.80;;;8.77;;
29848;SDS011;16728;50.832;5.590;2024-01-16T10:27:40;11.38;;;7.55;;
29848;SDS011;16728;50.832;5.590;2024-01-16T10:30:42;11.87;;;5.40;;
29848;SDS011;16728;50.832;5.590;2024-01-16T10:33:45;7.55;;;5.38;;
29848;SDS011;16728;50.832;5.590;2024-01-16T10:36:51;15.63;;;5.03;;
29848;SDS011;16728;50.832;5.590;2024-01-16T10:39:53;9.68;;;5.07;;
29848;SDS011;16728;50.832;5.590;2024-01-16T10:43:04;6.68;;;4.68;;
29848;SDS011;16728;50.832;5.590;2024-01-16T10:46:12;10.20;;;5.10;;
29848;SDS011;16728;50.832;5.590;2024-01-16T10:49:15;8.30;;;4.60;;
29848;SDS011;16728;50.832;5.590;2024-01-16T10:52:17;11.07;;;4.40;;
29848;SDS011;16728;50.832;5.590;2024-01-16T10:55:22;9.85;;;4.88;;
29848;SDS011;16728;50.832;5.590;2024-01-16T10:58:24;7.85;;;4.40;;
29848;SDS011;16728;50.832;5.590;2024-01-16T11:01:27;7.47;;;4.47;;
29848;SDS011;16728;50.832;5.590;2024-01-16T11:04:30;15.70;;;4.95;;
29848;SDS011;16728;50.832;5.590;2024-01-16T11:07:34;10.60;;;5.20;;
29848;SDS011;16728;50.832;5.590;2024-01-16T11:10:37;8.05;;;4.53;;
29848;SDS011;16728;50.832;5.590;2024-01-16T11:13:39;10.63;;;5.63;;
29848;SDS011;16728;50.832;5.590;2024-01-16T11:16:45;11.25;;;5.07;;
29848;SDS011;16728;50.832;5.590;2024-01-16T11:22:54;10.35;;;4.85;;
29848;SDS011;16728;50.832;5.590;2024-01-16T11:26:22;13.13;;;4.95;;
29848;SDS011;16728;50.832;5.590;2024-01-16T11:32:36;11.90;;;7.70;;
29848;SDS011;16728;50.832;5.590;2024-01-16T11:35:40;11.70;;;6.15;;
29848;SDS011;16728;50.832;5.590;2024-01-16T11:38:42;13.23;;;5.20;;
29848;SDS011;16728;50.832;5.590;2024-01-16T11:41:52;10.23;;;5.43;;
29848;SDS011;16728;50.832;5.590;2024-01-16T11:44:55;11.13;;;5.50;;
29848;SDS011;16728;50.832;5.590;2024-01-16T11:48:13;9.93;;;5.50;;
29848;SDS011;16728;50.832;5.590;2024-01-16T11:51:24;14.43;;;5.50;;
29848;SDS011;16728;50.832;5.590;2024-01-16T11:54:27;9.75;;;5.60;;
29848;SDS011;16728;50.832;5.590;2024-01-16T11:57:36;9.53;;;5.07;;
29848;SDS011;16728;50.832;5.590;2024-01-16T12:00:44;12.98;;;5.28;;
29848;SDS011;16728;50.832;5.590;2024-01-16T12:04:04;9.10;;;5.40;;
29848;SDS011;16728;50.832;5.590;2024-01-16T12:07:07;9.95;;;4.97;;
29848;SDS011;16728;50.832;5.590;2024-01-16T12:10:10;10.63;;;4.78;;
29848;SDS011;16728;50.832;5.590;2024-01-16T12:13:12;9.02;;;5.00;;
29848;SDS011;16728;50.832;5.590;2024-01-16T12:16:18;13.33;;;5.27;;
29848;SDS011;16728;50.832;5.590;2024-01-16T12:19:20;10.52;;;5.13;;
29848;SDS011;16728;50.832;5.590;2024-01-16T12:22:24;13.30;;;6.15;;
29848;SDS011;16728;50.832;5.590;2024-01-16T12:25:30;8.90;;;5.00;;
29848;SDS011;16728;50.832;5.590;2024-01-16T12:28:52;8.18;;;5.38;;
29848;SDS011;16728;50.832;5.590;2024-01-16T12:32:10;8.88;;;5.25;;
29848;SDS011;16728;50.832;5.590;2024-01-16T12:35:13;10.77;;;5.43;;
29848;SDS011;16728;50.832;5.590;2024-01-16T12:38:21;11.50;;;6.00;;
29848;SDS011;16728;50.832;5.590;2024-01-16T12:41:25;9.70;;;5.13;;
29848;SDS011;16728;50.832;5.590;2024-01-16T12:44:42;9.02;;;5.40;;
29848;SDS011;16728;50.832;5.590;2024-01-16T12:47:44;7.63;;;5.13;;
29848;SDS011;16728;50.832;5.590;2024-01-16T12:51:00;14.25;;;5.70;;
29848;SDS011;16728;50.832;5.590;2024-01-16T12:54:11;9.40;;;5.72;;
29848;SDS011;16728;50.832;5.590;2024-01-16T12:57:18;12.02;;;5.18;;
29848;SDS011;16728;50.832;5.590;2024-01-16T13:00:22;11.82;;;5.28;;
29848;SDS011;16728;50.832;5.590;2024-01-16T13:03:25;10.50;;;5.32;;
29848;SDS011;16728;50.832;5.590;2024-01-16T13:06:27;8.73;;;5.20;;
29848;SDS011;16728;50.832;5.590;2024-01-16T13:09:30;8.37;;;5.63;;
29848;SDS011;16728;50.832;5.590;2024-01-16T13:12:33;12.43;;;6.03;;
29848;SDS011;16728;50.832;5.590;2024-01-16T13:15:35;14.97;;;6.10;;
29848;SDS011;16728;50.832;5.590;2024-01-16T13:18:38;12.05;;;6.35;;
29848;SDS011;16728;50.832;5.590;2024-01-16T13:21:40;8.43;;;5.30;;
29848;SDS011;16728;50.832;5.590;2024-01-16T13:24:42;9.95;;;5.22;;
29848;SDS011;16728;50.832;5.590;2024-01-16T13:27:58;11.65;;;4.88;;
29848;SDS011;16728;50.832;5.590;2024-01-16T13:31:00;11.68;;;4.95;;
29848;SDS011;16728;50.832;5.590;2024-01-16T13:34:05;11.85;;;5.25;;
29848;SDS011;16728;50.832;5.590;2024-01-16T13:37:08;10.18;;;5.15;;
29848;SDS011;16728;50.832;5.590;2024-01-16T13:40:16;10.90;;;6.18;;
29848;SDS011;16728;50.832;5.590;2024-01-16T13:43:23;14.13;;;7.18;;
29848;SDS011;16728;50.832;5.590;2024-01-16T13:46:25;10.02;;;5.88;;
29848;SDS011;16728;50.832;5.590;2024-01-16T13:49:51;9.80;;;5.25;;
29848;SDS011;16728;50.832;5.590;2024-01-16T13:52:53;12.27;;;5.32;;
29848;SDS011;16728;50.832;5.590;2024-01-16T13:55:56;9.13;;;5.20;;
29848;SDS011;16728;50.832;5.590;2024-01-16T13:58:59;7.88;;;4.70;;
29848;SDS011;16728;50.832;5.590;2024-01-16T14:02:02;13.05;;;5.20;;
29848;SDS011;16728;50.832;5.590;2024-01-16T14:05:10;12.88;;;5.15;;
29848;SDS011;16728;50.832;5.590;2024-01-16T14:08:13;10.57;;;5.15;;
29848;SDS011;16728;50.832;5.590;2024-01-16T14:11:15;13.77;;;4.83;;
29848;SDS011;16728;50.832;5.590;2024-01-16T14:14:18;10.98;;;5.18;;
29848;SDS011;16728;50.832;5.590;2024-01-16T14:17:20;11.38;;;4.68;;
29848;SDS011;16728;50.832;5.590;2024-01-16T14:20:23;9.00;;;4.40;;
29848;SDS011;16728;50.832;5.590;2024-01-16T14:23:28;7.55;;;4.93;;
29848;SDS011;16728;50.832;5.590;2024-01-16T14:26:31;11.63;;;5.15;;
29848;SDS011;16728;50.832;5.590;2024-01-16T14:29:33;7.03;;;4.60;;
29848;SDS011;16728;50.832;5.590;2024-01-16T14:32:39;8.00;;;4.65;;
29848;SDS011;16728;50.832;5.590;2024-01-16T14:35:42;8.70;;;4.68;;
29848;SDS011;16728;50.832;5.590;2024-01-16T14:38:44;10.47;;;5.00;;
29848;SDS011;16728;50.832;5.590;2024-01-16T14:41:46;9.82;;;4.63;;
29848;SDS011;16728;50.832;5.590;2024-01-16T14:44:49;13.13;;;4.90;;
29848;SDS011;16728;50.832;5.590;2024-01-16T14:47:51;9.93;;;4.80;;
29848;SDS011;16728;50.832;5.590;2024-01-16T14:50:55;12.25;;;5.30;;
29848;SDS011;16728;50.832;5.590;2024-01-16T14:53:58;17.52;;;8.45;;
29848;SDS011;16728;50.832;5.590;2024-01-16T14:57:03;12.30;;;6.30;;
29848;SDS011;16728;50.832;5.590;2024-01-16T15:00:08;9.43;;;5.18;;
29848;SDS011;16728;50.832;5.590;2024-01-16T15:03:17;13.80;;;5.15;;
29848;SDS011;16728;50.832;5.590;2024-01-16T15:06:20;13.05;;;5.35;;
29848;SDS011;16728;50.832;5.590;2024-01-16T15:09:23;10.35;;;4.97;;
29848;SDS011;16728;50.832;5.590;2024-01-16T15:12:25;11.57;;;6.28;;
29848;SDS011;16728;50.832;5.590;2024-01-16T15:18:31;9.02;;;5.60;;
29848;SDS011;16728;50.832;5.590;2024-01-16T15:21:34;10.05;;;5.07;;
29848;SDS011;16728;50.832;5.590;2024-01-16T15:24:38;10.23;;;5.30;;
29848;SDS011;16728;50.832;5.590;2024-01-16T15:27:40;9.30;;;5.53;;
29848;SDS011;16728;50.832;5.590;2024-01-16T15:33:47;11.30;;;5.57;;
29848;SDS011;16728;50.832;5.590;2024-01-16T15:36:49;10.30;;;6.00;;
29848;SDS011;16728;50.832;5.590;2024-01-16T15:39:51;13.07;;;6.45;;
29848;SDS011;16728;50.832;5.590;2024-01-16T15:42:54;9.00;;;6.17;;
29848;SDS011;16728;50.832;5.590;2024-01-16T15:46:01;11.93;;;6.82;;
29848;SDS011;16728;50.832;5.590;2024-01-16T15:49:04;16.15;;;6.35;;
29848;SDS011;16728;50.832;5.590;2024-01-16T15:52:06;10.27;;;6.40;;
29848;SDS011;16728;50.832;5.590;2024-01-16T15:55:09;15.15;;;7.15;;
29848;SDS011;16728;50.832;5.590;2024-01-16T15:58:12;13.63;;;6.93;;
29848;SDS011;16728;50.832;5.590;2024-01-16T16:01:14;9.50;;;6.90;;
29848;SDS011;16728;50.832;5.590;2024-01-16T16:04:17;15.77;;;7.93;;
29848;SDS011;16728;50.832;5.590;2024-01-16T16:07:19;14.45;;;7.38;;
29848;SDS011;16728;50.832;5.590;2024-01-16T16:10:25;12.45;;;6.88;;
29848;SDS011;16728;50.832;5.590;2024-01-16T16:13:28;17.60;;;9.38;;
29848;SDS011;16728;50.832;5.590;2024-01-16T16:16:33;21.80;;;12.90;;
29848;SDS011;16728;50.832;5.590;2024-01-16T16:19:35;19.47;;;12.00;;
29848;SDS011;16728;50.832;5.590;2024-01-16T16:22:38;15.38;;;9.82;;
29848;SDS011;16728;50.832;5.590;2024-01-16T16:25:44;18.80;;;8.43;;
29848;SDS011;16728;50.832;5.590;2024-01-16T16:28:47;16.40;;;7.93;;
29848;SDS011;16728;50.832;5.590;2024-01-16T16:31:49;12.52;;;7.85;;
29848;SDS011;16728;50.832;5.590;2024-01-16T16:34:52;17.98;;;9.10;;
29848;SDS011;16728;50.832;5.590;2024-01-16T16:37:54;20.00;;;9.93;;
29848;SDS011;16728;50.832;5.590;2024-01-16T16:40:56;27.35;;;16.15;;
29848;SDS011;16728;50.832;5.590;2024-01-16T16:43:59;25.27;;;15.43;;
29848;SDS011;16728;50.832;5.590;2024-01-16T16:47:04;16.15;;;11.00;;
29848;SDS011;16728;50.832;5.590;2024-01-16T16:50:08;16.83;;;7.85;;
29848;SDS011;16728;50.832;5.590;2024-01-16T16:53:11;14.38;;;7.00;;
29848;SDS011;16728;50.832;5.590;2024-01-16T16:56:14;12.33;;;7.77;;
29848;SDS011;16728;50.832;5.590;2024-01-16T16:59:17;12.43;;;7.47;;
29848;SDS011;16728;50.832;5.590;2024-01-16T17:02:19;19.33;;;8.70;;
29848;SDS011;16728;50.832;5.590;2024-01-16T17:05:23;10.13;;;6.95;;
29848;SDS011;16728;50.832;5.590;2024-01-16T17:08:26;17.55;;;8.30;;
29848;SDS011;16728;50.832;5.590;2024-01-16T17:11:28;15.10;;;7.53;;
29848;SDS011;16728;50.832;5.590;2024-01-16T17:14:30;11.37;;;6.93;;
29848;SDS011;16728;50.832;5.590;2024-01-16T17:17:33;12.23;;;7.80;;
29848;SDS011;16728;50.832;5.590;2024-01-16T17:20:36;12.10;;;7.07;;
29848;SDS011;16728;50.832;5.590;2024-01-16T17:23:39;15.65;;;7.28;;
29848;SDS011;16728;50.832;5.590;2024-01-16T17:26:41;13.20;;;7.30;;
29848;SDS011;16728;50.832;5.590;2024-01-16T17:29:46;10.43;;;6.72;;
29848;SDS011;16728;50.832;5.590;2024-01-16T17:32:48;8.55;;;7.03;;
29848;SDS011;16728;50.832;5.590;2024-01-16T17:35:51;11.73;;;7.15;;
29848;SDS011;16728;50.832;5.590;2024-01-16T17:39:04;14.60;;;8.30;;
29848;SDS011;16728;50.832;5.590;2024-01-16T17:42:11;12.35;;;7.78;;
29848;SDS011;16728;50.832;5.590;2024-01-16T17:45:13;14.73;;;7.57;;
29848;SDS011;16728;50.832;5.590;2024-01-16T17:48:16;9.90;;;6.72;;
29848;SDS011;16728;50.832;5.590;2024-01-16T17:54:22;16.33;;;7.50;;
29848;SDS011;16728;50.832;5.590;2024-01-16T17:57:26;17.90;;;9.07;;
29848;SDS011;16728;50.832;5.590;2024-01-16T18:00:29;16.63;;;9.00;;
29848;SDS011;16728;50.832;5.590;2024-01-16T18:03:33;16.42;;;8.25;;
29848;SDS011;16728;50.832;5.590;2024-01-16T18:06:44;15.55;;;8.23;;
29848;SDS011;16728;50.832;5.590;2024-01-16T18:09:47;14.50;;;7.15;;
29848;SDS011;16728;50.832;5.590;2024-01-16T18:12:49;11.67;;;5.90;;
29848;SDS011;16728;50.832;5.590;2024-01-16T18:15:52;14.80;;;7.10;;
29848;SDS011;16728;50.832;5.590;2024-01-16T18:18:54;12.18;;;7.78;;
29848;SDS011;16728;50.832;5.590;2024-01-16T18:21:56;16.75;;;9.20;;
29848;SDS011;16728;50.832;5.590;2024-01-16T18:24:59;15.67;;;10.67;;
29848;SDS011;16728;50.832;5.590;2024-01-16T18:28:01;14.50;;;9.63;;
29848;SDS011;16728;50.832;5.590;2024-01-16T18:31:05;9.80;;;7.40;;
29848;SDS011;16728;50.832;5.590;2024-01-16T18:34:10;13.35;;;7.53;;
29848;SDS011;16728;50.832;5.590;2024-01-16T18:37:15;13.13;;;7.18;;
29848;SDS011;16728;50.832;5.590;2024-01-16T18:40:19;10.98;;;6.95;;